createdAt,value
2018-03-14T00:01:45.497Z,270
2018-03-14T00:06:45.775Z,315
2018-03-14T00:11:45.763Z,315
2018-03-14T00:16:45.617Z,292
2018-03-14T00:21:45.621Z,292
2018-03-14T00:26:46.180Z,270
2018-03-14T00:31:45.627Z,270
2018-03-14T00:36:45.850Z,225
2018-03-14T00:41:46.182Z,225
2018-03-14T00:46:45.663Z,248
2018-03-14T00:51:45.570Z,248
2018-03-14T00:56:45.972Z,270
2018-03-14T01:01:46.212Z,270
2018-03-14T01:06:46.253Z,270
2018-03-14T01:11:46.321Z,270
2018-03-14T01:16:46.225Z,292
2018-03-14T01:21:46.090Z,292
2018-03-14T01:26:45.957Z,270
2018-03-14T01:31:45.710Z,270
2018-03-14T01:36:45.831Z,270
2018-03-14T01:41:46.064Z,270
2018-03-14T01:46:46.041Z,315
2018-03-14T01:51:46.446Z,315
2018-03-14T01:56:45.679Z,270
2018-03-14T02:01:46.050Z,270
2018-03-14T02:06:45.975Z,270
2018-03-14T02:11:46.143Z,270
2018-03-14T02:16:45.702Z,270
2018-03-14T02:21:46.304Z,270
2018-03-14T02:26:45.768Z,270
2018-03-14T02:31:46.094Z,270
2018-03-14T02:36:46.000Z,270
2018-03-14T02:41:45.981Z,270
2018-03-14T02:46:45.941Z,270
2018-03-14T02:51:45.804Z,270
2018-03-14T02:56:46.042Z,270
2018-03-14T03:01:46.124Z,270
2018-03-14T03:06:45.662Z,315
2018-03-14T03:11:46.075Z,315
2018-03-14T03:16:45.717Z,270
2018-03-14T03:21:45.640Z,270
2018-03-14T03:26:46.107Z,315
2018-03-14T03:31:46.099Z,315
2018-03-14T03:36:45.703Z,292
2018-03-14T03:41:46.379Z,292
2018-03-14T03:46:46.597Z,315
2018-03-14T03:51:46.022Z,315
2018-03-14T03:56:45.824Z,315
2018-03-14T04:01:46.780Z,315
2018-03-14T04:06:45.731Z,270
2018-03-14T04:11:46.232Z,270
2018-03-14T04:16:46.655Z,292
2018-03-14T04:21:46.646Z,292
2018-03-14T04:26:46.592Z,315
2018-03-14T04:31:46.746Z,315
2018-03-14T04:36:46.721Z,315
2018-03-14T04:41:45.869Z,315
2018-03-14T04:46:45.839Z,292
2018-03-14T04:51:45.896Z,292
2018-03-14T04:56:45.915Z,292
2018-03-14T05:01:45.929Z,292
2018-03-14T05:06:46.390Z,315
2018-03-14T05:11:46.416Z,315
2018-03-14T05:16:51.456Z,292
2018-03-14T05:21:46.442Z,292
2018-03-14T05:26:46.483Z,315
2018-03-14T05:31:46.176Z,315
2018-03-14T05:36:46.424Z,338
2018-03-14T05:41:46.827Z,338
2018-03-14T05:46:45.889Z,315
2018-03-14T05:51:45.842Z,315
2018-03-14T05:56:45.827Z,292
2018-03-14T06:01:45.973Z,292
2018-03-14T06:06:46.466Z,315
2018-03-14T06:11:46.422Z,315
2018-03-14T06:16:46.449Z,338
2018-03-14T06:21:46.370Z,338
2018-03-14T06:26:46.315Z,315
2018-03-14T06:31:46.181Z,315
2018-03-14T06:36:46.302Z,270
2018-03-14T06:41:46.180Z,270
2018-03-14T06:46:46.075Z,315
2018-03-14T06:51:45.912Z,315
2018-03-14T06:56:46.779Z,292
2018-03-14T07:01:46.789Z,292
2018-03-14T07:06:46.855Z,315
2018-03-14T07:11:46.721Z,315
2018-03-14T07:16:46.682Z,338
2018-03-14T07:21:46.726Z,338
2018-03-14T07:26:46.633Z,315
2018-03-14T07:31:46.638Z,315
2018-03-14T07:36:46.570Z,315
2018-03-14T07:41:46.494Z,315
2018-03-14T07:46:46.379Z,338
2018-03-14T07:51:46.320Z,338
2018-03-14T07:56:46.158Z,315
2018-03-14T08:01:46.157Z,315
2018-03-14T08:06:46.473Z,22
2018-03-14T08:11:46.333Z,22
2018-03-14T08:16:46.189Z,315
2018-03-14T08:21:46.211Z,315
2018-03-14T08:26:46.208Z,315
2018-03-14T08:31:46.138Z,315
2018-03-14T08:36:46.073Z,0
2018-03-14T08:41:45.991Z,0
2018-03-14T08:46:46.995Z,338
2018-03-14T08:51:46.881Z,338
2018-03-14T08:56:46.749Z,315
2018-03-14T09:01:46.694Z,315
2018-03-14T09:06:46.675Z,315
2018-03-14T09:11:46.596Z,315
2018-03-14T09:16:46.440Z,315
2018-03-14T09:21:46.332Z,315
2018-03-14T09:26:46.310Z,68
2018-03-14T09:31:46.350Z,68
2018-03-14T09:36:46.374Z,0
2018-03-14T09:41:46.282Z,0
2018-03-14T09:46:46.223Z,315
2018-03-14T09:51:46.158Z,315
2018-03-14T09:56:46.306Z,292
2018-03-14T10:01:46.263Z,292
2018-03-14T10:06:46.457Z,292
2018-03-14T10:11:46.333Z,292
2018-03-14T10:16:46.327Z,315
2018-03-14T10:21:46.300Z,315
2018-03-14T10:26:46.334Z,315
2018-03-14T10:31:46.277Z,315
2018-03-14T10:36:46.506Z,292
2018-03-14T10:41:46.425Z,292
2018-03-14T10:46:46.355Z,315
2018-03-14T10:51:46.282Z,315
2018-03-14T10:56:46.180Z,338
2018-03-14T11:01:47.136Z,338
2018-03-14T11:06:46.765Z,338
2018-03-14T11:11:46.669Z,338
2018-03-14T11:16:46.625Z,315
2018-03-14T11:21:46.579Z,315
2018-03-14T11:26:46.480Z,338
2018-03-14T11:31:46.486Z,338
2018-03-14T11:36:46.383Z,315
2018-03-14T11:41:46.310Z,315
2018-03-14T11:46:46.247Z,0
2018-03-14T11:51:47.171Z,0
2018-03-14T11:56:47.042Z,292
2018-03-14T12:01:47.220Z,292
2018-03-14T12:06:46.511Z,315
2018-03-14T12:11:46.506Z,315
2018-03-14T12:16:46.513Z,315
2018-03-14T12:21:46.479Z,315
2018-03-14T12:26:46.368Z,22
2018-03-14T12:31:46.378Z,22
2018-03-14T12:36:46.449Z,315
2018-03-14T12:41:46.312Z,315
2018-03-14T12:46:46.323Z,315
2018-03-14T12:51:46.293Z,315
2018-03-14T12:56:47.232Z,315
2018-03-14T13:01:47.220Z,315
2018-03-14T13:06:46.337Z,315
2018-03-14T13:11:47.383Z,315
2018-03-14T13:16:46.401Z,315
2018-03-14T13:21:47.076Z,315
2018-03-14T13:26:47.200Z,270
2018-03-14T13:31:47.150Z,270
2018-03-14T13:36:47.020Z,338
2018-03-14T13:41:46.900Z,338
2018-03-14T13:46:46.942Z,338
2018-03-14T13:51:46.872Z,338
2018-03-14T13:56:47.257Z,315
2018-03-14T14:01:47.289Z,315
2018-03-14T14:06:47.202Z,292
2018-03-14T14:11:47.320Z,292
2018-03-14T14:16:47.221Z,292
2018-03-14T14:21:47.253Z,292
2018-03-14T14:26:47.102Z,68
2018-03-14T14:31:47.166Z,68
2018-03-14T14:36:47.022Z,0
2018-03-14T14:41:46.944Z,0
2018-03-14T14:46:46.869Z,0
2018-03-14T14:51:46.826Z,0
2018-03-14T14:56:46.842Z,45
2018-03-14T15:01:46.802Z,45
2018-03-14T15:06:46.897Z,22
2018-03-14T15:11:46.794Z,22
2018-03-14T15:16:46.713Z,45
2018-03-14T15:21:46.555Z,45
2018-03-14T15:26:46.497Z,45
2018-03-14T15:31:47.405Z,45
2018-03-14T15:36:47.451Z,45
2018-03-14T15:41:47.296Z,45
2018-03-14T15:46:47.224Z,68
2018-03-14T15:51:47.112Z,68
2018-03-14T15:56:47.070Z,68
2018-03-14T16:01:47.146Z,68
2018-03-14T16:06:47.193Z,68
2018-03-14T16:11:47.278Z,68
2018-03-14T16:16:47.256Z,68
2018-03-14T16:21:47.354Z,68
2018-03-14T16:26:47.199Z,68
2018-03-14T16:31:47.147Z,68
2018-03-14T16:37:18.119Z,90
2018-03-14T16:41:47.075Z,90
2018-03-14T16:46:46.960Z,45
2018-03-14T16:51:46.856Z,45
2018-03-14T16:56:46.781Z,68
2018-03-14T17:01:46.751Z,68
2018-03-14T17:06:46.672Z,90
2018-03-14T17:11:47.308Z,90
2018-03-14T17:16:47.246Z,90
2018-03-14T17:21:47.167Z,90
2018-03-14T17:26:47.083Z,90
2018-03-14T17:31:47.075Z,90
2018-03-14T17:36:46.983Z,112
2018-03-14T17:41:46.977Z,112
2018-03-14T17:46:46.854Z,45
2018-03-14T17:51:46.739Z,45
2018-03-14T17:56:46.646Z,45
2018-03-14T18:01:47.613Z,45
2018-03-14T18:06:47.625Z,68
2018-03-14T18:11:47.229Z,68
2018-03-14T18:16:47.227Z,45
2018-03-14T18:21:47.386Z,45
2018-03-14T18:26:47.269Z,68
2018-03-14T18:31:47.237Z,68
2018-03-14T18:36:47.251Z,90
2018-03-14T18:41:47.203Z,90
2018-03-14T18:46:47.110Z,68
2018-03-14T18:51:47.018Z,68
2018-03-14T18:56:46.981Z,68
2018-03-14T19:01:47.039Z,68
2018-03-14T19:06:46.966Z,135
2018-03-14T19:11:47.140Z,135
2018-03-14T19:16:47.053Z,135
2018-03-14T19:21:47.051Z,135
2018-03-14T19:26:47.359Z,112
2018-03-14T19:31:47.367Z,112
2018-03-14T19:36:47.407Z,112
2018-03-14T19:41:47.371Z,112
2018-03-14T19:46:47.299Z,112
2018-03-14T19:51:47.197Z,112
2018-03-14T19:56:47.187Z,90
2018-03-14T20:01:47.207Z,90
2018-03-14T20:06:47.173Z,112
2018-03-14T20:11:47.651Z,112
2018-03-14T20:16:47.547Z,90
2018-03-14T20:21:47.784Z,90
2018-03-14T20:26:47.647Z,90
2018-03-14T20:31:47.529Z,90
2018-03-14T20:36:47.485Z,90
2018-03-14T20:41:47.478Z,90
2018-03-14T20:46:47.443Z,112
2018-03-14T20:51:47.390Z,112
2018-03-14T20:56:47.242Z,90
2018-03-14T21:01:47.256Z,90
2018-03-14T21:06:47.287Z,68
2018-03-14T21:11:47.057Z,68
2018-03-14T21:16:47.013Z,90
2018-03-14T21:21:46.958Z,90
2018-03-14T21:26:46.837Z,45
2018-03-14T21:31:47.778Z,45
2018-03-14T21:36:47.779Z,135
2018-03-14T21:41:47.740Z,135
2018-03-14T21:46:47.550Z,68
2018-03-14T21:51:47.767Z,68
2018-03-14T21:56:47.724Z,68
2018-03-14T22:01:47.721Z,68
2018-03-14T22:06:47.695Z,112
2018-03-14T22:11:47.598Z,112
2018-03-14T22:16:47.476Z,90
2018-03-14T22:21:47.355Z,90
2018-03-14T22:26:47.205Z,112
2018-03-14T22:31:47.148Z,112
2018-03-14T22:36:47.075Z,90
2018-03-14T22:41:47.092Z,90
2018-03-14T22:46:47.056Z,112
2018-03-14T22:51:46.999Z,112
2018-03-14T22:56:46.932Z,90
2018-03-14T23:01:47.214Z,90
2018-03-14T23:06:47.304Z,112
2018-03-14T23:11:46.978Z,112
2018-03-14T23:16:47.896Z,112
2018-03-14T23:21:47.842Z,112
2018-03-14T23:26:47.668Z,112
2018-03-14T23:31:47.542Z,112
2018-03-14T23:36:47.538Z,112
2018-03-14T23:41:47.486Z,112
2018-03-14T23:46:47.393Z,90
2018-03-14T23:51:47.269Z,90
2018-03-14T23:56:47.158Z,68
